createdAt,value
2023-01-19T00:00:52.113Z,99074.69
2023-01-19T00:03:19.241Z,99081.63
2023-01-19T00:05:46.565Z,99079.16
2023-01-19T00:08:16.782Z,99082.50
2023-01-19T00:10:45.562Z,99086.78
2023-01-19T00:13:13.112Z,99086.84
2023-01-19T00:15:40.214Z,99085.09
2023-01-19T00:18:09.044Z,99083.41
2023-01-19T00:20:36.777Z,99079.81
2023-01-19T00:23:04.677Z,99077.25
2023-01-19T00:25:31.940Z,99077.25
2023-01-19T00:28:01.358Z,99074.81
2023-01-19T00:30:29.327Z,99079.94
2023-01-19T00:32:56.760Z,99075.56
2023-01-19T00:35:23.843Z,99071.44
2023-01-19T00:37:51.193Z,99071.44
2023-01-19T00:40:18.308Z,99064.09
2023-01-19T00:42:45.433Z,99066.78
2023-01-19T00:45:22.970Z,99068.69
2023-01-19T00:47:56.989Z,99056.97
2023-01-19T00:50:24.977Z,99052.91
2023-01-19T00:52:53.108Z,99053.28
2023-01-19T00:55:20.854Z,99047.34
2023-01-19T00:57:47.898Z,99044.88
2023-01-19T01:00:17.586Z,99047.25
2023-01-19T01:02:44.865Z,99054.34
2023-01-19T01:05:12.353Z,99052.13
2023-01-19T01:07:44.649Z,99056.97
2023-01-19T01:10:11.736Z,99060.28
2023-01-19T01:12:39.227Z,99059.56
2023-01-19T01:15:07.536Z,99068.25
2023-01-19T01:17:34.606Z,99059.66
2023-01-19T01:20:01.599Z,99059.66
2023-01-19T01:22:28.712Z,99066.38
2023-01-19T01:24:55.865Z,99055.88
2023-01-19T01:27:22.906Z,99065.25
2023-01-19T01:29:49.938Z,99068.66
2023-01-19T01:32:16.966Z,99066.03
2023-01-19T01:34:44.161Z,99070.22
2023-01-19T01:37:11.473Z,99062.44
2023-01-19T01:39:38.737Z,99065.81
2023-01-19T01:42:14.530Z,99064.81
2023-01-19T01:44:54.389Z,99062.94
2023-01-19T01:47:24.376Z,99058.53
2023-01-19T01:50:01.396Z,99055.09
2023-01-19T01:52:31.284Z,99055.84
2023-01-19T01:55:00.602Z,99059.31
2023-01-19T01:57:29.503Z,99061.88
2023-01-19T01:59:59.945Z,99057.59
2023-01-19T02:02:50.420Z,99060.97
2023-01-19T02:05:25.005Z,99064.38
2023-01-19T02:08:22.401Z,99061.75
2023-01-19T02:11:12.981Z,99055.16
2023-01-19T02:13:44.010Z,99051.06
2023-01-19T02:16:13.927Z,99051.97
2023-01-19T02:18:43.034Z,99053.84
2023-01-19T02:21:23.496Z,99057.31
2023-01-19T02:23:53.487Z,99050.53
2023-01-19T02:26:24.839Z,99048.00
2023-01-19T02:28:59.561Z,99050.72
2023-01-19T02:31:30.553Z,99070.69
2023-01-19T02:33:58.356Z,99068.38
2023-01-19T02:36:35.310Z,99075.31
2023-01-19T02:39:05.493Z,99062.59
2023-01-19T02:41:37.152Z,99056.66
2023-01-19T02:44:08.683Z,99038.75
2023-01-19T02:46:38.180Z,99043.06
2023-01-19T02:49:06.301Z,99055.94
2023-01-19T02:51:34.794Z,99061.91
2023-01-19T02:54:10.953Z,99054.31
2023-01-19T02:56:47.466Z,99055.22
2023-01-19T02:59:19.064Z,99060.34
2023-01-19T03:01:58.908Z,99074.16
2023-01-19T03:04:50.359Z,99076.69
2023-01-19T03:07:28.270Z,99087.75
2023-01-19T03:09:59.039Z,99091.66
2023-01-19T03:12:36.958Z,99096.03
2023-01-19T03:15:10.021Z,99092.47
2023-01-19T03:17:38.641Z,99087.34
2023-01-19T03:20:10.865Z,99089.25
2023-01-19T03:22:38.796Z,99087.69
2023-01-19T03:25:06.770Z,99082.66
2023-01-19T03:27:40.834Z,99081.69
2023-01-19T03:30:11.469Z,99089.25
2023-01-19T03:32:46.371Z,99097.72
2023-01-19T03:35:14.812Z,99093.47
2023-01-19T03:37:45.300Z,99101.81
2023-01-19T03:40:13.224Z,99106.13
2023-01-19T03:42:42.827Z,99110.03
2023-01-19T03:45:11.631Z,99106.72
2023-01-19T03:47:40.741Z,99114.47
2023-01-19T03:50:12.082Z,99112.69
2023-01-19T03:52:39.311Z,99115.22
2023-01-19T03:55:07.162Z,99104.13
2023-01-19T03:57:35.644Z,99110.03
2023-01-19T04:00:04.602Z,99103.09
2023-01-19T04:02:40.432Z,99092.66
2023-01-19T04:05:09.755Z,99092.25
2023-01-19T04:07:38.289Z,99089.13
2023-01-19T04:10:07.175Z,99091.03
2023-01-19T04:12:37.201Z,99094.75
2023-01-19T04:15:08.098Z,99092.94
2023-01-19T04:17:36.897Z,99095.56
2023-01-19T04:20:06.943Z,99097.31
2023-01-19T04:22:37.657Z,99101.75
2023-01-19T04:25:07.174Z,99097.34
2023-01-19T04:27:35.697Z,99092.69
2023-01-19T04:30:04.635Z,99088.78
2023-01-19T04:32:32.536Z,99081.84
2023-01-19T04:35:00.167Z,99084.53
2023-01-19T04:37:28.311Z,99095.81
2023-01-19T04:39:57.221Z,99093.38
2023-01-19T04:42:25.289Z,99083.78
2023-01-19T04:44:53.835Z,99093.00
2023-01-19T04:47:22.663Z,99096.63
2023-01-19T04:49:50.299Z,99099.06
2023-01-19T04:52:18.247Z,99107.19
2023-01-19T04:54:46.831Z,99100.00
2023-01-19T04:57:15.757Z,99102.19
2023-01-19T04:59:43.403Z,99101.31
2023-01-19T05:02:12.695Z,99095.47
2023-01-19T05:04:40.793Z,99092.97
2023-01-19T05:07:08.674Z,99090.22
2023-01-19T05:09:36.137Z,99099.06
2023-01-19T05:12:04.823Z,99109.34
2023-01-19T05:14:32.965Z,99106.78
2023-01-19T05:17:03.539Z,99102.53
2023-01-19T05:19:33.041Z,99103.34
2023-01-19T05:22:02.408Z,99107.41
2023-01-19T05:24:30.985Z,99108.50
2023-01-19T05:26:58.174Z,99117.13
2023-01-19T05:29:25.273Z,99118.91
2023-01-19T05:31:54.268Z,99122.25
2023-01-19T05:34:21.850Z,99125.06
2023-01-19T05:36:49.604Z,99135.78
2023-01-19T05:39:16.951Z,99139.81
2023-01-19T05:41:48.315Z,99133.97
2023-01-19T05:44:16.426Z,99140.31
2023-01-19T05:46:44.745Z,99146.34
2023-01-19T05:49:12.165Z,99149.50
2023-01-19T05:51:40.515Z,99150.44
2023-01-19T05:54:10.107Z,99150.66
2023-01-19T05:56:41.045Z,99152.34
2023-01-19T05:59:08.329Z,99155.78
2023-01-19T06:01:42.012Z,99159.03
2023-01-19T06:04:10.618Z,99149.97
2023-01-19T06:06:37.751Z,99155.34
2023-01-19T06:09:05.020Z,99163.00
2023-01-19T06:11:38.394Z,99154.78
2023-01-19T06:14:51.204Z,99154.91
2023-01-19T06:17:25.385Z,99159.81
2023-01-19T06:19:52.673Z,99168.06
2023-01-19T06:22:22.701Z,99168.53
2023-01-19T06:24:54.654Z,99172.91
2023-01-19T06:27:23.844Z,99178.91
2023-01-19T06:34:54.069Z,99208.06
2023-01-19T06:37:44.160Z,99207.75
2023-01-19T06:40:13.606Z,99209.66
2023-01-19T06:42:41.573Z,99214.91
2023-01-19T06:45:15.881Z,99213.44
2023-01-19T06:47:47.374Z,99213.56
2023-01-19T06:50:37.063Z,99220.59
2023-01-19T06:53:05.428Z,99221.41
2023-01-19T06:55:34.937Z,99225.53
2023-01-19T06:58:02.147Z,99225.19
2023-01-19T07:00:29.601Z,99229.00
2023-01-19T07:03:06.228Z,99232.28
2023-01-19T07:05:34.738Z,99235.59
2023-01-19T07:08:02.207Z,99239.03
2023-01-19T07:11:22.348Z,99249.66
2023-01-19T07:13:16.492Z,99249.31
2023-01-19T07:15:44.281Z,99254.56
2023-01-19T07:18:11.373Z,99256.25
2023-01-19T07:20:38.551Z,99264.75
2023-01-19T07:23:05.957Z,99275.97
2023-01-19T07:25:33.038Z,99273.56
2023-01-19T07:28:01.904Z,99278.47
2023-01-19T07:30:29.124Z,99275.13
2023-01-19T07:33:05.742Z,99279.53
2023-01-19T07:35:32.893Z,99278.38
2023-01-19T07:38:01.347Z,99290.13
2023-01-19T07:40:29.512Z,99303.75
2023-01-19T07:42:57.375Z,99294.72
2023-01-19T07:45:24.975Z,99305.88
2023-01-19T07:47:53.142Z,99299.63
2023-01-19T07:50:25.594Z,99319.47
2023-01-19T07:52:53.346Z,99327.13
2023-01-19T07:55:21.141Z,99330.47
2023-01-19T07:57:50.881Z,99328.91
2023-01-19T08:00:21.731Z,99339.94
2023-01-19T08:02:51.196Z,99340.13
2023-01-19T08:05:18.985Z,99349.59
2023-01-19T08:07:46.317Z,99356.63
2023-01-19T08:10:14.372Z,99355.03
2023-01-19T08:12:42.516Z,99360.19
2023-01-19T08:15:10.415Z,99374.16
2023-01-19T08:17:37.818Z,99370.59
2023-01-19T08:20:05.179Z,99384.53
2023-01-19T08:22:32.282Z,99385.78
2023-01-19T08:24:59.344Z,99403.94
2023-01-19T08:27:26.357Z,99400.53
2023-01-19T08:29:54.627Z,99409.03
2023-01-19T08:32:21.822Z,99415.09
2023-01-19T08:34:49.117Z,99421.06
2023-01-19T08:37:16.196Z,99428.50
2023-01-19T08:39:43.520Z,99444.25
2023-01-19T08:42:10.633Z,99448.34
2023-01-19T08:44:41.440Z,99456.47
2023-01-19T08:47:17.330Z,99460.00
2023-01-19T08:49:44.318Z,99466.69
2023-01-19T08:52:11.298Z,99463.44
2023-01-19T08:54:38.400Z,99468.31
2023-01-19T08:57:05.408Z,99476.75
2023-01-19T08:59:32.478Z,99485.88
2023-01-19T09:01:59.886Z,99482.69
2023-01-19T09:04:27.008Z,99494.22
2023-01-19T09:06:54.024Z,99498.28
2023-01-19T09:09:21.124Z,99499.50
2023-01-19T09:11:48.145Z,99497.84
2023-01-19T09:14:15.217Z,99497.41
2023-01-19T09:16:42.326Z,99506.47
2023-01-19T09:19:09.408Z,99505.88
2023-01-19T09:21:36.502Z,99508.72
2023-01-19T09:24:03.811Z,99522.38
2023-01-19T09:26:33.064Z,99522.09
2023-01-19T09:29:00.331Z,99518.84
2023-01-19T09:31:27.554Z,99530.81
2023-01-19T09:33:54.652Z,99529.25
2023-01-19T09:36:21.669Z,99535.34
2023-01-19T09:38:48.797Z,99535.88
2023-01-19T09:41:19.898Z,99539.94
2023-01-19T09:43:56.782Z,99560.78
2023-01-19T09:46:29.025Z,99571.09
2023-01-19T09:48:58.625Z,99584.91
2023-01-19T09:51:27.528Z,99578.59
2023-01-19T09:53:57.662Z,99580.50
2023-01-19T09:56:24.815Z,99590.94
2023-01-19T09:58:52.346Z,99585.75
2023-01-19T10:01:19.570Z,99585.97
2023-01-19T10:03:49.664Z,99602.94
2023-01-19T10:06:17.779Z,99604.69
2023-01-19T10:08:44.895Z,99598.00
2023-01-19T10:11:18.982Z,99586.91
2023-01-19T10:13:46.931Z,99584.41
2023-01-19T10:16:20.044Z,99589.31
2023-01-19T10:18:48.453Z,99586.03
2023-01-19T10:21:18.445Z,99587.50
2023-01-19T10:23:48.716Z,99585.09
2023-01-19T10:26:19.081Z,99589.06
2023-01-19T10:28:47.870Z,99597.53
2023-01-19T10:31:17.016Z,99590.81
2023-01-19T10:33:44.474Z,99601.06
2023-01-19T10:36:25.902Z,99586.53
2023-01-19T10:38:53.017Z,99581.41
2023-01-19T10:41:26.001Z,99589.38
2023-01-19T10:43:59.213Z,99586.06
2023-01-19T10:46:33.373Z,99587.75
2023-01-19T10:49:00.663Z,99588.47
2023-01-19T10:51:27.907Z,99581.09
2023-01-19T10:53:57.091Z,99574.16
2023-01-19T10:56:26.851Z,99579.34
2023-01-19T10:58:53.925Z,99576.09
2023-01-19T11:01:26.087Z,99572.06
2023-01-19T11:03:54.119Z,99569.66
2023-01-19T11:06:22.553Z,99573.28
2023-01-19T11:08:51.819Z,99568.03
2023-01-19T11:11:21.855Z,99563.81
2023-01-19T11:14:09.672Z,99559.56
2023-01-19T11:16:38.683Z,99551.13
2023-01-19T11:19:14.704Z,99542.81
2023-01-19T11:21:41.887Z,99536.00
2023-01-19T11:24:22.390Z,99533.97
2023-01-19T11:27:03.011Z,99537.09
2023-01-19T11:29:30.541Z,99521.72
2023-01-19T11:32:08.917Z,99525.09
2023-01-19T11:34:40.023Z,99521.59
2023-01-19T11:37:16.272Z,99519.84
2023-01-19T11:39:47.909Z,99523.06
2023-01-19T11:42:15.636Z,99518.59
2023-01-19T11:45:03.091Z,99517.69
2023-01-19T11:47:39.603Z,99518.88
2023-01-19T11:50:29.496Z,99520.69
2023-01-19T11:53:11.064Z,99511.16
2023-01-19T11:55:49.887Z,99511.88
2023-01-19T11:58:18.023Z,99509.97
2023-01-19T12:01:03.321Z,99506.50
2023-01-19T12:03:30.762Z,99497.91
2023-01-19T12:06:00.761Z,99497.56
2023-01-19T12:08:33.078Z,99498.31
2023-01-19T12:11:01.958Z,99495.34
2023-01-19T12:13:30.532Z,99498.69
2023-01-19T12:16:00.824Z,99500.94
2023-01-19T12:18:30.203Z,99503.44
2023-01-19T12:20:58.753Z,99500.06
2023-01-19T12:23:35.282Z,99507.66
2023-01-19T12:26:02.346Z,99508.41
2023-01-19T12:28:33.920Z,99502.53
2023-01-19T12:31:02.044Z,99499.75
2023-01-19T12:33:29.120Z,99502.00
2023-01-19T12:35:57.676Z,99496.13
2023-01-19T12:38:33.649Z,99504.56
2023-01-19T12:41:17.416Z,99504.38
2023-01-19T12:43:44.571Z,99508.53
2023-01-19T12:46:31.057Z,99495.53
2023-01-19T12:49:06.877Z,99504.09
2023-01-19T12:51:34.068Z,99506.72
2023-01-19T12:54:01.714Z,99504.88
2023-01-19T12:56:34.220Z,99505.66
2023-01-19T12:59:01.539Z,99514.03
2023-01-19T13:01:28.676Z,99499.69
2023-01-19T13:03:58.893Z,99501.03
2023-01-19T13:06:44.824Z,99505.78
2023-01-19T13:09:30.987Z,99508.69
2023-01-19T13:12:10.276Z,99508.28
2023-01-19T13:14:38.054Z,99513.38
2023-01-19T13:17:06.919Z,99521.94
2023-01-19T13:19:42.909Z,99513.06
2023-01-19T13:22:28.749Z,99523.69
2023-01-19T13:25:18.652Z,99520.88
2023-01-19T13:27:45.765Z,99530.16
2023-01-19T13:30:16.025Z,99526.63
2023-01-19T13:32:43.268Z,99535.69
2023-01-19T13:35:19.174Z,99539.03
2023-01-19T13:37:46.529Z,99542.59
2023-01-19T13:40:36.268Z,99539.91
2023-01-19T13:43:03.665Z,99547.69
2023-01-19T13:45:38.044Z,99540.63
2023-01-19T13:48:06.780Z,99546.81
2023-01-19T13:50:35.113Z,99554.06
2023-01-19T13:53:04.573Z,99555.00
2023-01-19T13:55:33.421Z,99557.63
2023-01-19T13:58:02.339Z,99557.09
2023-01-19T14:00:31.213Z,99557.00
2023-01-19T14:03:00.379Z,99563.41
2023-01-19T14:05:29.352Z,99559.84
2023-01-19T14:08:03.909Z,99564.59
2023-01-19T14:10:31.603Z,99569.81
2023-01-19T14:13:27.407Z,99569.63
2023-01-19T14:15:59.008Z,99578.13
2023-01-19T14:18:30.705Z,99581.56
2023-01-19T14:21:06.726Z,99585.59
2023-01-19T14:23:55.200Z,99584.84
2023-01-19T14:26:39.449Z,99581.78
2023-01-19T14:29:09.584Z,99586.09
2023-01-19T14:31:43.959Z,99581.78
2023-01-19T14:34:50.384Z,99590.38
2023-01-19T14:37:19.786Z,99586.66
2023-01-19T14:40:01.479Z,99589.38
2023-01-19T14:42:30.853Z,99597.22
2023-01-19T14:45:00.005Z,99589.69
2023-01-19T14:47:30.285Z,99594.13
2023-01-19T14:50:22.231Z,99590.94
2023-01-19T14:52:59.215Z,99602.13
2023-01-19T14:55:33.717Z,99596.53
2023-01-19T14:58:01.200Z,99602.41
2023-01-19T15:00:28.529Z,99599.00
2023-01-19T15:02:55.728Z,99602.28
2023-01-19T15:05:23.308Z,99599.38
2023-01-19T15:07:52.064Z,99603.72
2023-01-19T15:10:20.981Z,99603.78
2023-01-19T15:12:52.394Z,99608.88
2023-01-19T15:15:35.116Z,99605.22
2023-01-19T15:18:03.337Z,99607.50
2023-01-19T15:20:30.520Z,99609.44
2023-01-19T15:22:57.870Z,99615.66
2023-01-19T15:25:28.140Z,99613.03
2023-01-19T15:27:58.859Z,99610.63
2023-01-19T15:30:41.663Z,99609.91
2023-01-19T15:33:20.907Z,99608.41
2023-01-19T15:35:48.616Z,99622.38
2023-01-19T15:38:17.556Z,99628.38
2023-01-19T15:40:46.955Z,99620.84
2023-01-19T15:43:15.388Z,99628.75
2023-01-19T15:45:43.921Z,99633.09
2023-01-19T15:48:11.813Z,99639.94
2023-01-19T15:50:44.210Z,99640.97
2023-01-19T15:53:14.244Z,99632.47
2023-01-19T15:55:42.066Z,99641.88
2023-01-19T15:58:13.861Z,99642.84
2023-01-19T16:00:41.644Z,99644.50
2023-01-19T16:03:10.255Z,99641.22
2023-01-19T16:05:42.785Z,99648.03
2023-01-19T16:08:13.235Z,99646.50
2023-01-19T16:10:41.818Z,99644.00
2023-01-19T16:13:11.017Z,99651.69
2023-01-19T16:15:42.844Z,99646.56
2023-01-19T16:18:09.992Z,99658.56
2023-01-19T16:20:37.982Z,99651.09
2023-01-19T16:23:14.908Z,99653.75
2023-01-19T16:25:43.585Z,99659.25
2023-01-19T16:28:10.827Z,99659.06
2023-01-19T16:30:38.298Z,99659.38
2023-01-19T16:33:05.568Z,99659.63
2023-01-19T16:35:32.867Z,99664.50
2023-01-19T16:38:00.058Z,99659.69
2023-01-19T16:40:27.231Z,99665.69
2023-01-19T16:42:55.088Z,99666.59
2023-01-19T16:45:22.268Z,99680.09
2023-01-19T16:47:52.121Z,99675.56
2023-01-19T16:50:19.701Z,99680.00
2023-01-19T16:52:46.731Z,99693.88
2023-01-19T16:55:13.887Z,99698.22
2023-01-19T16:57:41.592Z,99705.13
2023-01-19T17:00:10.859Z,99710.22
2023-01-19T17:02:38.567Z,99714.44
2023-01-19T17:05:05.892Z,99718.59
2023-01-19T17:07:32.942Z,99718.38
2023-01-19T17:10:00.167Z,99722.84
2023-01-19T17:12:32.311Z,99731.34
2023-01-19T17:15:00.083Z,99738.25
2023-01-19T17:17:27.246Z,99746.66
2023-01-19T17:19:54.439Z,99750.09
2023-01-19T17:22:24.046Z,99746.56
2023-01-19T17:24:51.324Z,99743.13
2023-01-19T17:27:18.582Z,99745.66
2023-01-19T17:29:45.623Z,99739.63
2023-01-19T17:32:14.114Z,99755.03
2023-01-19T17:34:41.873Z,99753.31
2023-01-19T17:37:09.639Z,99751.50
2023-01-19T17:39:36.686Z,99753.22
2023-01-19T17:42:04.152Z,99744.66
2023-01-19T17:44:32.277Z,99749.81
2023-01-19T17:47:00.116Z,99749.81
2023-01-19T17:49:28.624Z,99748.81
2023-01-19T17:51:55.960Z,99747.81
2023-01-19T17:54:23.184Z,99750.41
2023-01-19T17:56:50.947Z,99758.13
2023-01-19T17:59:18.039Z,99751.09
2023-01-19T18:01:46.482Z,99754.56
2023-01-19T18:04:13.662Z,99752.03
2023-01-19T18:06:41.146Z,99755.91
2023-01-19T18:09:08.315Z,99752.16
2023-01-19T18:11:35.728Z,99764.13
2023-01-19T18:14:03.225Z,99759.91
2023-01-19T18:16:30.945Z,99762.34
2023-01-19T18:18:58.974Z,99765.69
2023-01-19T18:21:28.145Z,99764.81
2023-01-19T18:24:03.575Z,99764.13
2023-01-19T18:26:32.455Z,99758.97
2023-01-19T18:29:00.135Z,99753.97
2023-01-19T18:31:28.836Z,99749.97
2023-01-19T18:33:56.069Z,99754.31
2023-01-19T18:36:24.356Z,99758.41
2023-01-19T18:39:00.631Z,99749.88
2023-01-19T18:41:29.887Z,99749.38
2023-01-19T18:47:39.953Z,99736.59
2023-01-19T18:50:07.385Z,99745.53
2023-01-19T18:52:35.253Z,99747.47
2023-01-19T18:55:03.548Z,99745.97
2023-01-19T18:57:31.380Z,99741.16
2023-01-19T18:59:58.904Z,99742.91
2023-01-19T19:02:26.059Z,99743.06
2023-01-19T19:04:53.220Z,99738.16
2023-01-19T19:07:20.280Z,99734.84
2023-01-19T19:09:47.423Z,99736.75
2023-01-19T19:12:14.669Z,99736.06
2023-01-19T19:14:41.753Z,99743.94
2023-01-19T19:17:08.866Z,99738.97
2023-01-19T19:19:36.172Z,99740.72
2023-01-19T19:22:03.675Z,99744.19
2023-01-19T19:24:30.957Z,99743.53
2023-01-19T19:26:58.095Z,99737.34
2023-01-19T19:29:25.268Z,99744.28
2023-01-19T19:31:53.634Z,99738.31
2023-01-19T19:34:20.757Z,99740.59
2023-01-19T19:36:49.474Z,99741.25
2023-01-19T19:39:17.421Z,99736.84
2023-01-19T19:41:44.525Z,99735.94
2023-01-19T19:44:14.475Z,99736.69
2023-01-19T19:46:41.737Z,99746.81
2023-01-19T19:49:09.597Z,99743.44
2023-01-19T19:51:37.026Z,99743.50
2023-01-19T19:54:04.066Z,99737.53
2023-01-19T19:56:31.643Z,99741.69
2023-01-19T19:58:59.417Z,99739.13
2023-01-19T20:01:33.549Z,99741.75
2023-01-19T20:04:09.024Z,99736.75
2023-01-19T20:06:39.045Z,99739.06
2023-01-19T20:09:07.787Z,99741.97
2023-01-19T20:11:35.303Z,99740.34
2023-01-19T20:14:09.918Z,99742.34
2023-01-19T20:16:37.642Z,99750.97
2023-01-19T20:19:05.156Z,99750.97
2023-01-19T20:21:33.896Z,99754.44
2023-01-19T20:24:02.028Z,99759.56
2023-01-19T20:26:31.336Z,99756.97
2023-01-19T20:29:02.530Z,99759.50
2023-01-19T20:31:32.590Z,99760.31
2023-01-19T20:34:02.650Z,99762.84
2023-01-19T20:36:31.192Z,99764.75
2023-01-19T20:38:58.932Z,99761.31
2023-01-19T20:41:27.411Z,99754.44
2023-01-19T20:44:01.185Z,99754.13
2023-01-19T20:46:35.060Z,99758.31
2023-01-19T20:49:10.195Z,99766.38
2023-01-19T20:51:41.844Z,99765.28
2023-01-19T20:54:15.908Z,99771.44
2023-01-19T20:56:45.612Z,99778.41
2023-01-19T20:59:13.535Z,99781.91
2023-01-19T21:01:42.466Z,99791.50
2023-01-19T21:04:10.919Z,99799.41
2023-01-19T21:06:38.890Z,99794.25
2023-01-19T21:09:06.757Z,99801.13
2023-01-19T21:11:37.081Z,99804.56
2023-01-19T21:14:07.035Z,99804.78
2023-01-19T21:16:34.873Z,99803.16
2023-01-19T21:19:02.216Z,99801.50
2023-01-19T21:21:31.827Z,99805.91
2023-01-19T21:24:00.266Z,99800.16
2023-01-19T21:26:31.514Z,99800.16
2023-01-19T21:28:59.700Z,99806.16
2023-01-19T21:31:28.724Z,99806.34
2023-01-19T21:33:56.302Z,99816.53
2023-01-19T21:36:23.585Z,99808.88
2023-01-19T21:38:52.219Z,99812.38
2023-01-19T21:41:19.749Z,99805.50
2023-01-19T21:43:47.393Z,99808.94
2023-01-19T21:46:29.005Z,99811.31
2023-01-19T21:49:00.160Z,99819.09
2023-01-19T21:51:28.340Z,99822.56
2023-01-19T21:53:59.483Z,99819.19
2023-01-19T21:56:27.945Z,99820.94
2023-01-19T21:58:56.151Z,99826.22
2023-01-19T22:01:26.069Z,99826.13
2023-01-19T22:03:54.916Z,99830.38
2023-01-19T22:06:22.004Z,99831.41
2023-01-19T22:08:49.334Z,99832.31
2023-01-19T22:11:17.141Z,99828.81
2023-01-19T22:13:44.511Z,99832.25
2023-01-19T22:16:13.428Z,99839.00
2023-01-19T22:18:41.721Z,99834.63
2023-01-19T22:21:08.861Z,99843.22
2023-01-19T22:23:35.994Z,99850.06
2023-01-19T22:26:03.618Z,99845.81
2023-01-19T22:28:30.648Z,99847.56
2023-01-19T22:31:05.287Z,99854.31
2023-01-19T22:33:32.532Z,99846.44
2023-01-19T22:36:12.780Z,99848.06
2023-01-19T22:38:40.374Z,99843.78
2023-01-19T22:41:14.790Z,99839.47
2023-01-19T22:43:42.190Z,99844.53
2023-01-19T22:46:09.595Z,99842.94
2023-01-19T22:48:36.881Z,99846.44
2023-01-19T22:51:03.966Z,99842.31
2023-01-19T22:53:31.378Z,99842.28
2023-01-19T22:55:58.462Z,99844.81
2023-01-19T22:58:25.531Z,99848.50
2023-01-19T23:00:52.690Z,99852.72
2023-01-19T23:03:19.806Z,99845.09
2023-01-19T23:05:46.961Z,99850.16
2023-01-19T23:08:13.992Z,99853.66
2023-01-19T23:10:41.188Z,99855.28
2023-01-19T23:13:08.261Z,99854.47
2023-01-19T23:15:35.417Z,99857.22
2023-01-19T23:18:02.624Z,99860.69
2023-01-19T23:20:29.685Z,99864.13
2023-01-19T23:22:56.789Z,99862.41
2023-01-19T23:25:23.805Z,99864.13
2023-01-19T23:27:50.933Z,99871.06
2023-01-19T23:30:18.133Z,99873.69
2023-01-19T23:32:48.634Z,99873.75
2023-01-19T23:35:16.028Z,99871.25
2023-01-19T23:37:43.275Z,99877.31
2023-01-19T23:40:11.114Z,99876.53
2023-01-19T23:42:38.212Z,99878.13
2023-01-19T23:45:05.719Z,99867.94
2023-01-19T23:47:34.240Z,99874.91
2023-01-19T23:50:01.899Z,99883.44
2023-01-19T23:52:28.991Z,99866.31
2023-01-19T23:54:56.077Z,99875.00
2023-01-19T23:57:23.180Z,99878.38
2023-01-19T23:59:50.432Z,99873.25
